createdAt,value
2023-04-09T00:00:52.286Z,96707.19
2023-04-09T00:01:55.496Z,96705.41
2023-04-09T00:03:10.106Z,96701.97
2023-04-09T00:04:18.431Z,96700.28
2023-04-09T00:05:21.932Z,96707.13
2023-04-09T00:06:31.629Z,96700.28
2023-04-09T00:07:34.616Z,96707.06
2023-04-09T00:08:40.934Z,96700.19
2023-04-09T00:09:43.816Z,96698.47
2023-04-09T00:10:49.235Z,96700.13
2023-04-09T00:11:58.427Z,96697.56
2023-04-09T00:13:03.893Z,96694.03
2023-04-09T00:14:09.902Z,96696.59
2023-04-09T00:15:24.009Z,96699.97
2023-04-09T00:16:33.626Z,96693.19
2023-04-09T00:17:37.107Z,96700.84
2023-04-09T00:18:43.205Z,96694.78
2023-04-09T00:19:46.158Z,96700.75
2023-04-09T00:20:51.987Z,96699.91
2023-04-09T00:21:57.874Z,96696.53
2023-04-09T00:23:06.549Z,96696.53
2023-04-09T00:24:09.523Z,96694.78
2023-04-09T00:25:15.490Z,96692.28
2023-04-09T00:26:18.115Z,96701.59
2023-04-09T00:27:23.261Z,96690.50
2023-04-09T00:28:26.277Z,96699.84
2023-04-09T00:29:32.248Z,96699.88
2023-04-09T00:30:35.350Z,96702.44
2023-04-09T00:31:41.230Z,96697.31
2023-04-09T00:32:44.601Z,96701.53
2023-04-09T00:33:50.456Z,96696.47
2023-04-09T00:34:53.702Z,96705.81
2023-04-09T00:36:02.090Z,96698.19
2023-04-09T00:37:07.715Z,96694.66
2023-04-09T00:38:13.643Z,96702.38
2023-04-09T00:39:19.773Z,96698.94
2023-04-09T00:40:32.886Z,96696.41
2023-04-09T00:41:36.307Z,96700.69
2023-04-09T00:42:42.226Z,96696.41
2023-04-09T00:43:48.075Z,96702.38
2023-04-09T00:44:54.374Z,96698.84
2023-04-09T00:46:04.082Z,96697.97
2023-04-09T00:47:10.206Z,96691.16
2023-04-09T00:48:16.769Z,96686.81
2023-04-09T00:49:20.244Z,96690.28
2023-04-09T00:50:26.047Z,96699.66
2023-04-09T00:51:29.665Z,96696.25
2023-04-09T00:52:37.781Z,96697.19
2023-04-09T00:53:41.159Z,96704.09
2023-04-09T00:54:47.597Z,96698.09
2023-04-09T00:55:58.968Z,96699.66
2023-04-09T00:57:07.046Z,96703.13
2023-04-09T00:58:19.357Z,96707.44
2023-04-09T00:59:22.278Z,96701.38
2023-04-09T01:00:31.491Z,96699.66
2023-04-09T01:01:34.251Z,96705.63
2023-04-09T01:02:39.742Z,96706.50
2023-04-09T01:03:43.369Z,96705.56
2023-04-09T01:04:52.516Z,96708.19
2023-04-09T01:06:03.193Z,96707.38
2023-04-09T01:07:15.058Z,96706.59
2023-04-09T01:08:32.638Z,96709.13
2023-04-09T01:09:44.467Z,96705.72
2023-04-09T01:10:53.356Z,96710.00
2023-04-09T01:12:12.937Z,96707.50
2023-04-09T01:13:20.796Z,96704.91
2023-04-09T01:14:31.441Z,96710.00
2023-04-09T01:15:38.491Z,96699.78
2023-04-09T01:16:48.221Z,96706.53
2023-04-09T01:17:57.237Z,96702.28
2023-04-09T01:19:06.327Z,96701.38
2023-04-09T01:20:18.778Z,96705.66
2023-04-09T01:21:29.889Z,96697.13
2023-04-09T01:22:45.374Z,96697.97
2023-04-09T01:24:04.314Z,96704.84
2023-04-09T01:25:19.363Z,96703.97
2023-04-09T01:26:36.018Z,96697.91
2023-04-09T01:28:01.329Z,96698.75
2023-04-09T01:29:11.120Z,96691.09
2023-04-09T01:30:19.578Z,96692.63
2023-04-09T01:31:29.176Z,96689.16
2023-04-09T01:32:36.962Z,96695.22
2023-04-09T01:33:40.868Z,96692.63
2023-04-09T01:34:52.416Z,96693.53
2023-04-09T01:35:55.787Z,96694.38
2023-04-09T01:37:04.886Z,96700.44
2023-04-09T01:38:14.596Z,96699.53
2023-04-09T01:39:23.677Z,96689.25
2023-04-09T01:40:28.024Z,96692.69
2023-04-09T01:41:36.187Z,96689.28
2023-04-09T01:42:39.933Z,96693.59
2023-04-09T01:43:47.270Z,96696.97
2023-04-09T01:44:54.214Z,96691.03
2023-04-09T01:46:00.512Z,96697.84
2023-04-09T01:47:04.440Z,96695.28
2023-04-09T01:48:10.557Z,96701.31
2023-04-09T01:49:17.097Z,96696.25
2023-04-09T01:50:23.207Z,96697.09
2023-04-09T01:51:37.776Z,96692.00
2023-04-09T01:52:43.567Z,96694.63
2023-04-09T01:53:47.100Z,96692.97
2023-04-09T01:54:55.804Z,96691.25
2023-04-09T01:56:00.207Z,96686.91
2023-04-09T01:57:07.112Z,96689.44
2023-04-09T01:58:10.348Z,96691.19
2023-04-09T01:59:19.179Z,96690.34
2023-04-09T02:00:28.170Z,96692.91
2023-04-09T02:01:42.473Z,96690.41
2023-04-09T02:02:59.514Z,96693.88
2023-04-09T02:04:08.472Z,96694.66
2023-04-09T02:05:17.594Z,96692.16
2023-04-09T02:06:30.370Z,96698.97
2023-04-09T02:07:41.381Z,96692.16
2023-04-09T02:08:53.447Z,96694.72
2023-04-09T02:09:57.728Z,96694.72
2023-04-09T02:11:07.877Z,96696.53
2023-04-09T02:12:15.588Z,96694.03
2023-04-09T02:13:24.488Z,96697.47
2023-04-09T02:14:36.217Z,96690.56
2023-04-09T02:15:46.811Z,96692.34
2023-04-09T02:16:49.869Z,96688.88
2023-04-09T02:17:56.301Z,96689.78
2023-04-09T02:19:02.108Z,96686.31
2023-04-09T02:20:08.746Z,96694.03
2023-04-09T02:21:14.015Z,96693.19
2023-04-09T02:22:23.228Z,96687.25
2023-04-09T02:23:29.769Z,96691.47
2023-04-09T02:24:36.709Z,96690.69
2023-04-09T02:25:39.754Z,96689.03
2023-04-09T02:26:48.123Z,96689.91
2023-04-09T02:27:53.872Z,96695.00
2023-04-09T02:28:59.941Z,96691.63
2023-04-09T02:30:02.075Z,96695.94
2023-04-09T02:31:09.668Z,96686.56
2023-04-09T02:32:11.999Z,96690.81
2023-04-09T02:33:16.879Z,96693.44
2023-04-09T02:34:19.115Z,96689.16
2023-04-09T02:35:23.987Z,96690.00
2023-04-09T02:36:26.707Z,96691.72
2023-04-09T02:37:31.579Z,96685.69
2023-04-09T02:38:33.700Z,96684.00
2023-04-09T02:39:38.560Z,96693.44
2023-04-09T02:40:41.504Z,96687.41
2023-04-09T02:41:46.520Z,96680.63
2023-04-09T02:42:48.680Z,96681.50
2023-04-09T02:43:53.438Z,96692.59
2023-04-09T02:44:56.006Z,96684.91
2023-04-09T02:46:00.779Z,96690.06
2023-04-09T02:47:05.611Z,96690.94
2023-04-09T02:48:10.593Z,96693.50
2023-04-09T02:49:12.801Z,96697.75
2023-04-09T02:50:17.646Z,96691.75
2023-04-09T02:51:20.568Z,96689.19
2023-04-09T02:52:26.236Z,96692.50
2023-04-09T02:53:28.474Z,96688.25
2023-04-09T02:54:33.284Z,96699.41
2023-04-09T02:55:35.642Z,96692.56
2023-04-09T02:56:40.539Z,96692.53
2023-04-09T02:57:42.734Z,96690.00
2023-04-09T02:58:49.792Z,96694.28
2023-04-09T02:59:52.120Z,96695.13
2023-04-09T03:00:56.945Z,96689.13
2023-04-09T03:01:59.407Z,96693.44
2023-04-09T03:03:07.362Z,96693.50
2023-04-09T03:04:10.205Z,96688.38
2023-04-09T03:05:15.504Z,96691.03
2023-04-09T03:06:18.788Z,96686.78
2023-04-09T03:07:23.912Z,96688.50
2023-04-09T03:08:26.125Z,96686.78
2023-04-09T03:09:31.376Z,96688.53
2023-04-09T03:10:33.588Z,96689.34
2023-04-09T03:11:38.471Z,96683.34
2023-04-09T03:12:41.078Z,96688.44
2023-04-09T03:13:45.960Z,96683.22
2023-04-09T03:14:48.388Z,96689.22
2023-04-09T03:15:55.043Z,96684.16
2023-04-09T03:16:57.216Z,96681.63
2023-04-09T03:18:02.124Z,96687.63
2023-04-09T03:19:07.027Z,96680.81
2023-04-09T03:20:12.496Z,96677.44
2023-04-09T03:21:15.143Z,96680.03
2023-04-09T03:22:20.103Z,96679.19
2023-04-09T03:23:22.351Z,96674.06
2023-04-09T03:24:27.522Z,96678.44
2023-04-09T03:25:29.766Z,96675.03
2023-04-09T03:26:36.696Z,96671.59
2023-04-09T03:27:38.958Z,96672.50
2023-04-09T03:28:43.750Z,96672.50
2023-04-09T03:29:46.140Z,96673.41
2023-04-09T03:30:50.983Z,96669.97
2023-04-09T03:31:53.419Z,96673.41
2023-04-09T03:32:59.665Z,96666.59
2023-04-09T03:34:01.813Z,96672.59
2023-04-09T03:35:09.833Z,96669.09
2023-04-09T03:36:14.687Z,96666.53
2023-04-09T03:37:16.848Z,96664.81
2023-04-09T03:38:22.274Z,96673.41
2023-04-09T03:39:24.537Z,96666.53
2023-04-09T03:40:29.352Z,96672.50
2023-04-09T03:41:34.186Z,96663.97
2023-04-09T03:42:37.653Z,96663.97
2023-04-09T03:43:42.726Z,96676.88
2023-04-09T03:44:44.940Z,96668.28
2023-04-09T03:45:49.878Z,96677.66
2023-04-09T03:46:52.126Z,96671.59
2023-04-09T03:47:58.100Z,96676.69
2023-04-09T03:49:00.852Z,96673.16
2023-04-09T03:50:08.704Z,96673.97
2023-04-09T03:51:12.723Z,96675.59
2023-04-09T03:52:17.585Z,96682.53
2023-04-09T03:53:20.086Z,96680.88
2023-04-09T03:54:24.966Z,96680.03
2023-04-09T03:55:27.427Z,96681.75
2023-04-09T03:56:32.222Z,96680.94
2023-04-09T03:57:34.449Z,96672.25
2023-04-09T03:58:40.152Z,96681.63
2023-04-09T03:59:42.481Z,96679.06
2023-04-09T04:00:47.240Z,96685.09
2023-04-09T04:01:49.805Z,96685.19
2023-04-09T04:02:55.002Z,96689.41
2023-04-09T04:03:57.654Z,96679.97
2023-04-09T04:05:02.606Z,96684.25
2023-04-09T04:06:07.940Z,96685.13
2023-04-09T04:07:12.982Z,96683.44
2023-04-09T04:08:15.305Z,96674.94
2023-04-09T04:09:20.052Z,96679.19
2023-04-09T04:10:22.286Z,96680.97
2023-04-09T04:11:27.306Z,96679.22
2023-04-09T04:12:31.430Z,96682.66
2023-04-09T04:13:36.332Z,96674.97
2023-04-09T04:14:38.580Z,96682.59
2023-04-09T04:15:44.255Z,96679.19
2023-04-09T04:16:46.529Z,96680.03
2023-04-09T04:17:51.427Z,96678.31
2023-04-09T04:18:54.064Z,96680.81
2023-04-09T04:19:59.325Z,96675.69
2023-04-09T04:21:01.622Z,96681.69
2023-04-09T04:22:09.165Z,96685.94
2023-04-09T04:23:11.520Z,96680.09
2023-04-09T04:24:17.153Z,96681.75
2023-04-09T04:25:19.759Z,96678.38
2023-04-09T04:26:25.071Z,96680.88
2023-04-09T04:27:31.226Z,96680.91
2023-04-09T04:28:44.032Z,96678.44
2023-04-09T04:29:46.455Z,96683.56
2023-04-09T04:30:52.031Z,96684.47
2023-04-09T04:31:55.684Z,96691.38
2023-04-09T04:33:01.341Z,96687.94
2023-04-09T04:34:06.883Z,96676.81
2023-04-09T04:35:16.058Z,96679.34
2023-04-09T04:36:22.614Z,96681.09
2023-04-09T04:37:33.987Z,96687.09
2023-04-09T04:38:40.347Z,96690.56
2023-04-09T04:39:49.725Z,96695.69
2023-04-09T04:40:53.213Z,96688.88
2023-04-09T04:42:02.069Z,96688.91
2023-04-09T04:43:05.449Z,96699.19
2023-04-09T04:44:11.817Z,96691.41
2023-04-09T04:45:18.893Z,96687.09
2023-04-09T04:46:42.005Z,96692.16
2023-04-09T04:47:45.236Z,96696.47
2023-04-09T04:48:55.249Z,96699.09
2023-04-09T04:49:59.016Z,96697.34
2023-04-09T04:51:07.627Z,96699.88
2023-04-09T04:52:10.081Z,96698.97
2023-04-09T04:53:18.080Z,96697.25
2023-04-09T04:54:20.306Z,96702.38
2023-04-09T04:55:25.502Z,96693.84
2023-04-09T04:56:27.932Z,96695.59
2023-04-09T04:57:32.856Z,96696.47
2023-04-09T04:58:35.060Z,96696.66
2023-04-09T04:59:40.753Z,96697.56
2023-04-09T05:00:43.007Z,96692.53
2023-04-09T05:01:48.068Z,96694.28
2023-04-09T05:02:50.576Z,96702.97
2023-04-09T05:03:55.968Z,96707.41
2023-04-09T05:04:58.595Z,96710.06
2023-04-09T05:06:03.532Z,96706.00
2023-04-09T05:07:05.981Z,96709.53
2023-04-09T05:08:10.934Z,96710.44
2023-04-09T05:09:15.908Z,96703.69
2023-04-09T05:10:21.268Z,96708.84
2023-04-09T05:11:23.727Z,96709.81
2023-04-09T05:12:28.701Z,96707.31
2023-04-09T05:13:30.922Z,96709.97
2023-04-09T05:14:35.798Z,96712.59
2023-04-09T05:15:41.596Z,96709.28
2023-04-09T05:16:46.603Z,96705.94
2023-04-09T05:17:48.930Z,96710.25
2023-04-09T05:18:54.167Z,96711.16
2023-04-09T05:19:58.180Z,96714.59
2023-04-09T05:21:03.012Z,96715.50
2023-04-09T05:22:05.341Z,96717.22
2023-04-09T05:23:12.778Z,96711.25
2023-04-09T05:24:20.656Z,96723.28
2023-04-09T05:25:22.904Z,96720.66
2023-04-09T05:26:27.858Z,96729.22
2023-04-09T05:27:30.610Z,96720.66
2023-04-09T05:28:36.216Z,96718.09
2023-04-09T05:29:38.376Z,96726.59
2023-04-09T05:30:43.433Z,96724.91
2023-04-09T05:31:48.460Z,96727.44
2023-04-09T05:32:50.903Z,96721.41
2023-04-09T05:33:56.085Z,96723.06
2023-04-09T05:34:58.313Z,96721.28
2023-04-09T05:36:03.266Z,96728.06
2023-04-09T05:37:05.577Z,96726.41
2023-04-09T05:38:10.898Z,96725.50
2023-04-09T05:39:13.154Z,96726.31
2023-04-09T05:40:20.859Z,96724.59
2023-04-09T05:41:23.045Z,96723.69
2023-04-09T05:42:28.041Z,96720.91
2023-04-09T05:43:30.672Z,96725.16
2023-04-09T05:44:35.935Z,96722.66
2023-04-09T05:45:38.289Z,96726.06
2023-04-09T05:46:43.233Z,96725.16
2023-04-09T05:47:45.550Z,96728.56
2023-04-09T05:48:52.415Z,96720.78
2023-04-09T05:49:55.112Z,96728.47
2023-04-09T05:51:01.038Z,96723.28
2023-04-09T05:52:03.594Z,96723.31
2023-04-09T05:53:08.750Z,96725.84
2023-04-09T05:54:11.071Z,96723.28
2023-04-09T05:55:16.172Z,96724.13
2023-04-09T05:56:23.006Z,96717.22
2023-04-09T05:57:30.448Z,96719.78
2023-04-09T05:58:32.793Z,96718.78
2023-04-09T05:59:37.680Z,96714.44
2023-04-09T06:00:42.598Z,96711.03
2023-04-09T06:01:47.566Z,96710.13
2023-04-09T06:02:49.885Z,96715.25
2023-04-09T06:03:57.743Z,96713.50
2023-04-09T06:05:00.907Z,96715.22
2023-04-09T06:06:07.870Z,96716.88
2023-04-09T06:07:10.185Z,96712.53
2023-04-09T06:08:15.156Z,96716.81
2023-04-09T06:09:17.405Z,96721.84
2023-04-09T06:10:22.734Z,96720.06
2023-04-09T06:11:27.968Z,96723.41
2023-04-09T06:12:32.960Z,96719.94
2023-04-09T06:13:35.206Z,96711.34
2023-04-09T06:14:40.278Z,96719.00
2023-04-09T06:15:42.648Z,96709.50
2023-04-09T06:16:47.629Z,96714.56
2023-04-09T06:17:49.903Z,96713.66
2023-04-09T06:18:57.178Z,96717.84
2023-04-09T06:19:59.734Z,96712.59
2023-04-09T06:21:05.566Z,96716.72
2023-04-09T06:22:10.632Z,96712.41
2023-04-09T06:23:15.543Z,96709.75
2023-04-09T06:24:17.832Z,96713.09
2023-04-09T06:25:23.059Z,96703.66
2023-04-09T06:26:28.006Z,96707.84
2023-04-09T06:27:32.959Z,96709.50
2023-04-09T06:28:35.209Z,96714.59
2023-04-09T06:29:40.144Z,96718.75
2023-04-09T06:30:42.461Z,96710.97
2023-04-09T06:31:47.729Z,96719.41
2023-04-09T06:32:55.274Z,96725.25
2023-04-09T06:33:57.766Z,96723.50
2023-04-09T06:35:02.458Z,96729.34
2023-04-09T06:36:08.300Z,96725.72
2023-04-09T06:37:13.483Z,96734.09
2023-04-09T06:38:15.937Z,96732.38
2023-04-09T06:39:20.956Z,96735.69
2023-04-09T06:40:23.550Z,96728.81
2023-04-09T06:41:31.108Z,96729.56
2023-04-09T06:42:33.486Z,96739.72
2023-04-09T06:43:39.158Z,96748.25
2023-04-09T06:44:44.122Z,96741.19
2023-04-09T06:45:46.543Z,96744.50
2023-04-09T06:46:52.082Z,96742.63
2023-04-09T06:47:57.236Z,96740.78
2023-04-09T06:48:59.676Z,96747.56
2023-04-09T06:50:04.815Z,96750.03
2023-04-09T06:51:10.744Z,96748.97
2023-04-09T06:52:13.118Z,96741.91
2023-04-09T06:53:18.550Z,96741.81
2023-04-09T06:54:21.333Z,96745.06
2023-04-09T06:55:27.400Z,96741.66
2023-04-09T06:56:35.121Z,96751.88
2023-04-09T06:57:38.740Z,96746.53
2023-04-09T06:58:44.050Z,96743.78
2023-04-09T06:59:46.581Z,96747.94
2023-04-09T07:00:51.880Z,96751.09
2023-04-09T07:01:54.728Z,96754.31
2023-04-09T07:02:59.943Z,96754.22
2023-04-09T07:04:05.258Z,96751.69
2023-04-09T07:05:08.145Z,96747.16
2023-04-09T07:06:13.549Z,96746.44
2023-04-09T07:07:16.057Z,96748.91
2023-04-09T07:08:23.293Z,96747.19
2023-04-09T07:09:25.742Z,96757.50
2023-04-09T07:10:30.790Z,96751.47
2023-04-09T07:11:38.486Z,96746.88
2023-04-09T07:12:40.857Z,96745.91
2023-04-09T07:13:45.960Z,96752.53
2023-04-09T07:14:48.284Z,96751.53
2023-04-09T07:15:53.325Z,96759.16
2023-04-09T07:16:58.281Z,96750.47
2023-04-09T07:18:03.320Z,96753.91
2023-04-09T07:19:07.717Z,96756.22
2023-04-09T07:20:14.065Z,96753.00
2023-04-09T07:21:19.492Z,96759.63
2023-04-09T07:22:22.308Z,96751.97
2023-04-09T07:23:27.467Z,96758.00
2023-04-09T07:24:32.838Z,96757.22
2023-04-09T07:25:35.068Z,96759.84
2023-04-09T07:26:42.965Z,96757.34
2023-04-09T07:27:48.422Z,96753.91
2023-04-09T07:28:53.561Z,96755.66
2023-04-09T07:29:56.584Z,96760.03
2023-04-09T07:31:02.925Z,96761.66
2023-04-09T07:32:05.736Z,96765.09
2023-04-09T07:33:10.898Z,96766.72
2023-04-09T07:34:15.954Z,96763.97
2023-04-09T07:35:19.026Z,96767.13
2023-04-09T07:36:24.280Z,96762.72
2023-04-09T07:37:29.652Z,96760.00
2023-04-09T07:38:35.155Z,96769.31
2023-04-09T07:39:37.634Z,96765.66
2023-04-09T07:40:42.781Z,96767.25
2023-04-09T07:41:48.900Z,96770.75
2023-04-09T07:42:54.319Z,96760.19
2023-04-09T07:43:56.957Z,96766.91
2023-04-09T07:45:03.680Z,96764.97
2023-04-09T07:46:08.808Z,96764.09
2023-04-09T07:47:13.858Z,96765.88
2023-04-09T07:48:18.978Z,96757.22
2023-04-09T07:49:24.053Z,96763.19
2023-04-09T07:50:29.224Z,96766.34
2023-04-09T07:51:31.767Z,96761.75
2023-04-09T07:52:36.673Z,96761.66
2023-04-09T07:53:38.925Z,96764.94
2023-04-09T07:54:43.866Z,96764.09
2023-04-09T07:55:48.867Z,96764.56
2023-04-09T07:56:53.978Z,96759.00
2023-04-09T07:57:59.268Z,96758.72
2023-04-09T07:59:01.503Z,96757.00
2023-04-09T08:00:07.177Z,96758.50
2023-04-09T08:01:12.138Z,96757.59
2023-04-09T08:02:15.518Z,96759.06
2023-04-09T08:03:20.791Z,96756.34
2023-04-09T08:04:23.476Z,96747.50
2023-04-09T08:05:29.224Z,96759.22
2023-04-09T08:06:34.402Z,96747.69
2023-04-09T08:07:39.600Z,96752.78
2023-04-09T08:08:44.479Z,96754.81
2023-04-09T08:09:51.560Z,96750.38
2023-04-09T08:10:57.381Z,96754.38
2023-04-09T08:12:02.584Z,96751.56
2023-04-09T08:13:08.733Z,96760.25
2023-04-09T08:14:13.323Z,96757.09
2023-04-09T08:15:18.318Z,96751.59
2023-04-09T08:16:21.632Z,96754.91
2023-04-09T08:17:27.942Z,96763.31
2023-04-09T08:18:30.399Z,96750.16
2023-04-09T08:19:36.463Z,96755.91
2023-04-09T08:20:45.439Z,96752.28
2023-04-09T08:21:51.666Z,96754.63
2023-04-09T08:22:56.987Z,96757.06
2023-04-09T08:24:01.688Z,96758.25
2023-04-09T08:25:07.280Z,96756.34
2023-04-09T08:26:12.663Z,96756.03
2023-04-09T08:27:20.426Z,96756.69
2023-04-09T08:28:25.380Z,96758.28
2023-04-09T08:29:30.684Z,96757.66
2023-04-09T08:30:34.566Z,96758.84
2023-04-09T08:31:39.789Z,96756.47
2023-04-09T08:32:44.961Z,96756.47
2023-04-09T08:33:47.389Z,96753.69
2023-04-09T08:34:52.297Z,96762.94
2023-04-09T08:35:54.631Z,96756.59
2023-04-09T08:37:01.557Z,96754.38
2023-04-09T08:38:09.953Z,96752.03
2023-04-09T08:43:56.219Z,96760.00
2023-04-09T08:45:15.853Z,96760.38
2023-04-09T08:46:28.712Z,96754.75
2023-04-09T08:47:37.105Z,96753.16
2023-04-09T08:48:50.136Z,96759.94
2023-04-09T08:51:39.862Z,96754.91
2023-04-09T08:53:12.329Z,96756.81
2023-04-09T08:55:52.680Z,96750.81
2023-04-09T08:56:58.490Z,96757.09
2023-04-09T08:58:09.967Z,96743.31
2023-04-09T08:59:44.561Z,96751.38
2023-04-09T09:05:32.543Z,96745.41
2023-04-09T09:07:08.913Z,96751.56
2023-04-09T09:10:04.848Z,96756.56
2023-04-09T09:11:30.816Z,96753.59
2023-04-09T09:12:47.587Z,96749.84
2023-04-09T09:14:07.731Z,96755.38
2023-04-09T09:15:33.737Z,96756.41
2023-04-09T09:18:59.433Z,96752.94
2023-04-09T09:20:50.972Z,96751.03
2023-04-09T09:30:43.516Z,96747.88
2023-04-09T09:32:39.094Z,96740.50
2023-04-09T09:35:50.829Z,96748.28
2023-04-09T09:39:41.104Z,96756.28
2023-04-09T09:41:24.258Z,96746.66
2023-04-09T09:49:31.042Z,96747.84
2023-04-09T09:53:28.292Z,96749.00
2023-04-09T09:55:43.969Z,96746.75
2023-04-09T09:57:31.737Z,96741.41
2023-04-09T10:02:05.380Z,96744.53
2023-04-09T10:10:58.713Z,96750.41
2023-04-09T10:13:10.420Z,96738.34
2023-04-09T10:21:52.728Z,96734.09
2023-04-09T10:23:57.152Z,96724.00
2023-04-09T10:30:13.643Z,96732.41
2023-04-09T10:32:20.814Z,96723.38
2023-04-09T10:34:35.251Z,96727.63
2023-04-09T10:40:42.035Z,96725.97
2023-04-09T10:56:11.576Z,96701.03
2023-04-09T11:02:06.832Z,96686.72
2023-04-09T11:21:23.150Z,96689.88
2023-04-09T11:25:17.350Z,96695.31
2023-04-09T11:27:06.618Z,96700.72
2023-04-09T11:29:04.422Z,96698.19
2023-04-09T11:30:42.529Z,96690.31
2023-04-09T11:31:55.463Z,96695.03
2023-04-09T11:34:38.959Z,96698.69
2023-04-09T11:36:28.370Z,96692.09
2023-04-09T11:38:30.730Z,96685.50
2023-04-09T11:46:51.650Z,96684.53
2023-04-09T11:48:35.887Z,96678.53
2023-04-09T11:52:29.080Z,96674.38
2023-04-09T11:58:08.679Z,96682.38
2023-04-09T11:59:59.827Z,96687.16
2023-04-09T12:01:25.081Z,96685.25
2023-04-09T12:05:33.801Z,96684.38
2023-04-09T12:18:34.170Z,96675.47
2023-04-09T12:25:13.424Z,96671.69
2023-04-09T12:31:12.924Z,96680.44
2023-04-09T12:35:01.646Z,96682.53
2023-04-09T12:36:46.882Z,96686.91
2023-04-09T12:42:25.489Z,96682.97
2023-04-09T12:44:32.549Z,96674.84
2023-04-09T12:46:24.307Z,96681.00
2023-04-09T12:48:00.036Z,96674.22
2023-04-09T12:49:44.962Z,96683.25
2023-04-09T12:54:20.382Z,96682.25
2023-04-09T12:55:52.011Z,96673.25
2023-04-09T12:57:38.000Z,96672.22
2023-04-09T13:08:44.753Z,96666.00
2023-04-09T13:10:52.562Z,96654.97
2023-04-09T13:13:06.410Z,96645.66
2023-04-09T13:14:33.982Z,96639.06
2023-04-09T13:16:10.642Z,96645.88
2023-04-09T13:17:57.304Z,96648.88
2023-04-09T13:21:34.415Z,96644.78
2023-04-09T13:23:33.062Z,96655.03
2023-04-09T13:24:39.930Z,96649.78
2023-04-09T13:26:03.734Z,96639.81
2023-04-09T13:31:25.425Z,96651.47
2023-04-09T13:38:16.139Z,96627.59
2023-04-09T13:41:37.390Z,96636.34
2023-04-09T13:43:08.711Z,96633.94
2023-04-09T13:49:27.164Z,96640.63
2023-04-09T13:53:38.841Z,96645.53
2023-04-09T13:55:18.037Z,96645.56
2023-04-09T14:04:03.525Z,96652.16
2023-04-09T14:05:47.391Z,96650.94
2023-04-09T14:11:25.990Z,96653.34
2023-04-09T14:14:37.586Z,96633.94
2023-04-09T14:21:35.984Z,96635.00
2023-04-09T14:25:24.928Z,96636.13
2023-04-09T14:30:24.269Z,96638.47
2023-04-09T14:36:41.469Z,96609.78
2023-04-09T14:38:35.506Z,96602.81
2023-04-09T14:42:55.742Z,96588.69
2023-04-09T14:52:34.962Z,96586.47
2023-04-09T14:54:20.553Z,96594.78
2023-04-09T14:55:50.699Z,96586.81
2023-04-09T14:57:56.511Z,96580.19
2023-04-09T15:01:33.998Z,96572.19
2023-04-09T15:03:19.657Z,96568.06
2023-04-09T15:06:51.104Z,96572.75
2023-04-09T15:10:40.787Z,96577.16
2023-04-09T15:12:20.564Z,96569.78
2023-04-09T15:13:49.669Z,96568.25
2023-04-09T15:17:38.602Z,96572.19
2023-04-09T15:24:17.866Z,96574.41
2023-04-09T15:25:54.091Z,96569.03
2023-04-09T15:27:41.480Z,96567.75
2023-04-09T15:29:18.557Z,96577.06
2023-04-09T15:40:32.439Z,96607.91
2023-04-09T15:44:01.100Z,96605.41
2023-04-09T15:45:55.470Z,96611.44
2023-04-09T15:47:33.161Z,96614.91
2023-04-09T15:49:06.171Z,96607.97
2023-04-09T15:50:59.569Z,96610.38
2023-04-09T15:52:34.097Z,96613.13
2023-04-09T15:54:22.876Z,96590.03
2023-04-09T15:55:56.935Z,96589.28
2023-04-09T15:57:18.925Z,96588.38
2023-04-09T16:11:14.126Z,96563.38
2023-04-09T16:12:43.592Z,96568.50
2023-04-09T16:14:33.608Z,96569.06
2023-04-09T16:16:53.394Z,96564.25
2023-04-09T16:19:30.201Z,96576.16
2023-04-09T16:20:32.848Z,96576.75
2023-04-09T16:21:46.247Z,96575.88
2023-04-09T16:22:52.772Z,96581.44
2023-04-09T16:23:55.315Z,96582.31
2023-04-09T16:25:00.541Z,96578.47
2023-04-09T16:26:02.941Z,96578.00
2023-04-09T16:27:08.165Z,96584.34
2023-04-09T16:28:10.686Z,96580.22
2023-04-09T16:29:18.750Z,96576.03
2023-04-09T16:30:21.458Z,96573.19
2023-04-09T16:31:26.525Z,96578.88
2023-04-09T16:32:34.387Z,96578.03
2023-04-09T16:33:36.948Z,96575.41
2023-04-09T16:34:44.653Z,96583.84
2023-04-09T16:35:47.259Z,96592.53
2023-04-09T16:36:52.390Z,96578.16
2023-04-09T16:37:54.847Z,96578.78
2023-04-09T16:39:07.737Z,96591.34
2023-04-09T16:40:10.778Z,96586.84
2023-04-09T16:41:15.968Z,96587.66
2023-04-09T16:42:25.586Z,96586.09
2023-04-09T16:43:27.843Z,96590.09
2023-04-09T16:44:33.292Z,96580.47
2023-04-09T16:45:35.919Z,96581.41
2023-04-09T16:46:46.996Z,96590.72
2023-04-09T16:47:55.068Z,96585.47
2023-04-09T16:49:02.717Z,96590.78
2023-04-09T16:50:12.692Z,96591.75
2023-04-09T16:51:19.146Z,96590.63
2023-04-09T16:52:24.172Z,96592.91
2023-04-09T16:53:26.997Z,96590.66
2023-04-09T16:54:33.405Z,96596.56
2023-04-09T16:55:36.125Z,96589.91
2023-04-09T16:56:41.108Z,96597.53
2023-04-09T16:57:43.414Z,96603.03
2023-04-09T16:58:50.033Z,96607.59
2023-04-09T16:59:54.163Z,96607.53
2023-04-09T17:01:00.861Z,96608.72
2023-04-09T17:02:03.267Z,96612.09
2023-04-09T17:03:15.764Z,96618.16
2023-04-09T17:04:20.994Z,96608.91
2023-04-09T17:05:24.724Z,96616.03
2023-04-09T17:06:29.948Z,96614.97
2023-04-09T17:07:32.389Z,96618.75
2023-04-09T17:08:46.063Z,96617.84
2023-04-09T17:09:48.491Z,96619.00
2023-04-09T17:11:02.471Z,96623.69
2023-04-09T17:12:04.898Z,96629.81
2023-04-09T17:13:10.499Z,96627.72
2023-04-09T17:14:14.605Z,96620.72
2023-04-09T17:15:19.537Z,96629.94
2023-04-09T17:16:22.931Z,96625.28
2023-04-09T17:17:28.417Z,96633.69
2023-04-09T17:18:38.587Z,96634.66
2023-04-09T17:19:42.884Z,96628.44
2023-04-09T17:20:48.569Z,96633.50
2023-04-09T17:21:53.571Z,96632.22
2023-04-09T17:22:56.139Z,96634.50
2023-04-09T17:24:03.460Z,96647.09
2023-04-09T17:25:06.782Z,96640.88
2023-04-09T17:26:17.030Z,96642.56
2023-04-09T17:27:22.586Z,96638.00
2023-04-09T17:28:29.234Z,96644.00
2023-04-09T17:29:38.495Z,96647.94
2023-04-09T17:30:43.850Z,96642.50
2023-04-09T17:31:51.117Z,96646.72
2023-04-09T17:33:00.075Z,96642.97
2023-04-09T17:34:08.877Z,96647.16
2023-04-09T17:35:12.523Z,96643.38
2023-04-09T17:36:21.298Z,96647.94
2023-04-09T17:37:31.260Z,96643.03
2023-04-09T17:38:39.537Z,96651.91
2023-04-09T17:39:51.569Z,96650.91
2023-04-09T17:41:01.059Z,96644.44
2023-04-09T17:42:09.888Z,96653.63
2023-04-09T17:43:17.777Z,96653.19
2023-04-09T17:44:23.240Z,96652.84
2023-04-09T17:45:30.151Z,96658.31
2023-04-09T17:46:34.658Z,96660.63
2023-04-09T17:47:40.133Z,96663.44
2023-04-09T17:48:42.386Z,96656.91
2023-04-09T17:49:53.823Z,96658.75
2023-04-09T17:50:59.173Z,96661.06
2023-04-09T17:52:02.659Z,96660.69
2023-04-09T17:53:08.137Z,96659.44
2023-04-09T17:54:10.619Z,96663.41
2023-04-09T17:55:18.207Z,96662.81
2023-04-09T17:56:26.467Z,96657.28
2023-04-09T17:57:32.562Z,96662.13
2023-04-09T17:58:37.734Z,96658.25
2023-04-09T17:59:43.639Z,96663.00
2023-04-09T18:00:45.983Z,96665.81
2023-04-09T18:01:51.616Z,96671.22
2023-04-09T18:02:57.817Z,96669.72
2023-04-09T18:04:04.585Z,96661.44
2023-04-09T18:05:13.417Z,96666.03
2023-04-09T18:06:18.931Z,96668.84
2023-04-09T18:07:25.359Z,96663.09
2023-04-09T18:08:29.232Z,96670.41
2023-04-09T18:09:34.983Z,96668.06
2023-04-09T18:10:42.882Z,96671.16
2023-04-09T18:11:46.149Z,96665.50
2023-04-09T18:12:51.586Z,96673.59
2023-04-09T18:14:00.162Z,96674.00